createdAt,value
2023-04-18T00:06:33.882Z,12.85
2023-04-18T00:12:37.998Z,18.33
2023-04-18T00:30:23.776Z,15.90
2023-04-18T00:33:21.046Z,13.00
2023-04-18T00:39:48.902Z,13.82
2023-04-18T00:49:04.479Z,12.40
2023-04-18T00:52:18.465Z,12.18
2023-04-18T00:58:20.432Z,12.98
2023-04-18T01:10:30.269Z,12.05
2023-04-18T01:13:43.538Z,12.18
2023-04-18T01:16:25.868Z,12.52
2023-04-18T01:19:17.587Z,12.60
2023-04-18T01:22:06.119Z,12.02
2023-04-18T01:31:36.455Z,11.90
2023-04-18T01:34:23.632Z,11.70
2023-04-18T01:37:19.128Z,11.80
2023-04-18T01:46:53.247Z,11.57
2023-04-18T01:50:02.227Z,12.30
2023-04-18T01:53:08.009Z,11.95
2023-04-18T01:56:10.297Z,11.65
2023-04-18T01:59:17.131Z,11.85
2023-04-18T02:05:37.519Z,12.13
2023-04-18T02:08:42.320Z,11.68
2023-04-18T02:14:36.016Z,11.18
2023-04-18T02:17:08.760Z,11.48
2023-04-18T02:20:09.805Z,11.02
2023-04-18T02:23:12.592Z,11.88
2023-04-18T02:32:40.128Z,11.60
2023-04-18T02:38:59.540Z,11.73
2023-04-18T02:49:20.983Z,11.00
2023-04-18T03:00:02.328Z,11.48
2023-04-18T03:06:48.188Z,11.02
2023-04-18T03:38:13.646Z,10.73
2023-04-18T03:54:59.561Z,10.75
2023-04-18T05:06:18.850Z,10.30
2023-04-18T05:08:56.929Z,10.00
2023-04-18T07:37:36.244Z,5.28
2023-04-18T08:01:21.882Z,5.00
2023-04-18T08:04:38.656Z,5.10
2023-04-18T08:10:40.074Z,4.97
2023-04-18T08:17:17.610Z,4.20
2023-04-18T08:20:28.096Z,5.07
2023-04-18T08:23:56.182Z,4.95
2023-04-18T08:26:58.467Z,5.18
2023-04-18T08:34:02.526Z,5.15
2023-04-18T08:40:22.761Z,6.63
2023-04-18T08:50:23.252Z,4.85
2023-04-18T09:56:05.119Z,4.57
2023-04-18T10:00:17.473Z,5.30
2023-04-18T10:03:32.047Z,4.72
2023-04-18T10:06:19.575Z,4.97
2023-04-18T10:13:08.022Z,5.10
2023-04-18T10:16:07.114Z,4.78
2023-04-18T10:19:18.538Z,4.88
2023-04-18T10:22:23.821Z,5.55
2023-04-18T10:40:38.348Z,4.28
2023-04-18T10:54:09.256Z,4.97
2023-04-18T10:57:31.795Z,4.95
2023-04-18T11:08:03.435Z,5.03
2023-04-18T11:15:54.538Z,5.40
2023-04-18T11:31:28.807Z,5.55
2023-04-18T11:35:02.763Z,4.78
2023-04-18T11:38:02.843Z,5.18
2023-04-18T11:41:34.402Z,5.32
2023-04-18T11:51:52.771Z,5.40
2023-04-18T11:58:45.289Z,6.13
2023-04-18T12:02:18.638Z,5.85
2023-04-18T12:09:28.122Z,5.35
2023-04-18T12:24:49.626Z,5.68
2023-04-18T12:27:54.129Z,6.20
2023-04-18T12:38:03.383Z,6.82
2023-04-18T12:40:31.751Z,7.00
2023-04-18T12:46:36.821Z,6.85
2023-04-18T12:52:50.652Z,6.72
2023-04-18T12:56:06.914Z,6.25
2023-04-18T13:06:29.459Z,6.65
2023-04-18T13:08:57.899Z,6.05
2023-04-18T13:12:16.011Z,6.13
2023-04-18T13:18:39.568Z,5.50
2023-04-18T13:22:19.492Z,5.30
2023-04-18T13:25:31.597Z,5.10
2023-04-18T14:05:24.164Z,5.70
2023-04-18T14:13:18.173Z,5.30
2023-04-18T14:38:15.555Z,5.13
2023-04-18T14:45:44.004Z,4.72
2023-04-18T15:06:43.925Z,6.85
2023-04-18T15:09:51.404Z,6.93
2023-04-18T15:13:04.522Z,6.30
2023-04-18T15:16:42.546Z,6.72
2023-04-18T15:20:02.228Z,6.65
2023-04-18T15:35:37.821Z,7.10
2023-04-18T15:42:14.525Z,6.57
2023-04-18T15:44:55.774Z,6.80
2023-04-18T15:55:18.748Z,7.57
2023-04-18T15:58:29.317Z,7.90
2023-04-18T16:01:31.449Z,8.05
2023-04-18T16:07:57.640Z,8.35
2023-04-18T16:11:23.306Z,8.60
2023-04-18T16:14:00.771Z,9.13
2023-04-18T16:16:48.526Z,9.38
2023-04-18T16:20:13.324Z,9.70
2023-04-18T16:27:20.280Z,9.15
2023-04-18T16:30:20.824Z,9.48
2023-04-18T16:33:00.636Z,8.85
2023-04-18T16:35:35.059Z,9.57
2023-04-18T16:38:11.278Z,9.00
2023-04-18T16:44:17.669Z,9.93
2023-04-18T16:47:08.403Z,9.52
2023-04-18T16:50:11.144Z,9.43
2023-04-18T16:53:10.762Z,8.82
2023-04-18T17:02:32.870Z,9.75
2023-04-18T17:05:20.262Z,9.95
2023-04-18T17:08:34.618Z,9.80
2023-04-18T17:11:56.806Z,9.80
2023-04-18T17:15:33.257Z,9.23
2023-04-18T17:18:27.107Z,9.48
2023-04-18T17:21:21.666Z,9.63
2023-04-18T17:23:54.727Z,10.27
2023-04-18T17:26:40.867Z,9.45
2023-04-18T17:29:39.989Z,9.88
2023-04-18T17:32:10.528Z,9.48
2023-04-18T17:35:00.061Z,9.55
2023-04-18T17:41:30.072Z,8.60
2023-04-18T17:44:04.678Z,9.90
2023-04-18T17:46:54.144Z,10.60
2023-04-18T17:53:06.433Z,9.82
2023-04-18T17:56:03.111Z,9.60
2023-04-18T17:58:43.075Z,8.70
2023-04-18T18:01:38.827Z,8.80
2023-04-18T18:04:20.280Z,9.38
2023-04-18T18:06:58.534Z,8.48
2023-04-18T18:09:46.115Z,8.52
2023-04-18T18:12:42.026Z,9.00
2023-04-18T18:16:08.568Z,8.80
2023-04-18T18:18:53.480Z,8.38
2023-04-18T18:21:23.426Z,7.85
2023-04-18T18:27:18.297Z,8.35
2023-04-18T18:29:50.856Z,8.88
2023-04-18T18:32:26.260Z,7.45
2023-04-18T18:35:01.880Z,8.07
2023-04-18T18:37:30.666Z,7.85
2023-04-18T18:40:27.398Z,7.05
2023-04-18T18:43:30.159Z,7.53
2023-04-18T18:46:42.976Z,7.55
2023-04-18T18:49:12.538Z,7.22
2023-04-18T18:51:51.206Z,7.53
2023-04-18T18:54:47.564Z,7.30
2023-04-18T18:57:55.819Z,7.25
2023-04-18T19:06:08.979Z,7.25
2023-04-18T19:08:47.948Z,7.57
2023-04-18T19:11:37.932Z,8.32
2023-04-18T19:14:13.161Z,7.25
2023-04-18T19:19:29.865Z,7.40
2023-04-18T19:22:43.597Z,7.15
2023-04-18T19:25:44.226Z,8.55
2023-04-18T19:28:28.627Z,7.07
2023-04-18T19:31:03.871Z,8.45
2023-04-18T19:33:34.381Z,7.10
2023-04-18T19:36:08.601Z,8.10
2023-04-18T19:38:41.731Z,6.80
2023-04-18T19:41:18.186Z,7.72
2023-04-18T19:43:46.933Z,9.27
2023-04-18T19:46:44.173Z,8.73
2023-04-18T19:53:12.766Z,7.90
2023-04-18T19:58:53.507Z,7.75
2023-04-18T20:01:26.346Z,7.10
2023-04-18T20:04:01.166Z,6.87
2023-04-18T20:06:32.442Z,7.07
2023-04-18T20:09:03.949Z,7.30
2023-04-18T20:11:46.143Z,6.82
2023-04-18T20:14:49.118Z,7.25
2023-04-18T20:20:43.081Z,6.95
2023-04-18T20:23:40.085Z,6.80
2023-04-18T20:26:25.294Z,7.13
2023-04-18T20:29:16.528Z,6.88
2023-04-18T20:31:52.464Z,7.13
2023-04-18T20:34:22.345Z,7.10
2023-04-18T20:36:55.777Z,6.85
2023-04-18T20:39:29.070Z,7.45
2023-04-18T20:41:58.009Z,6.78
2023-04-18T20:44:31.128Z,7.30
2023-04-18T20:47:01.463Z,6.93
2023-04-18T20:49:35.342Z,7.85
2023-04-18T20:52:28.950Z,6.68
2023-04-18T20:55:07.037Z,7.60
2023-04-18T20:57:41.230Z,6.68
2023-04-18T21:00:33.065Z,6.90
2023-04-18T21:03:13.355Z,7.30
2023-04-18T21:05:53.128Z,6.55
2023-04-18T21:08:22.823Z,6.55
2023-04-18T21:11:02.801Z,7.55
2023-04-18T21:13:32.768Z,6.70
2023-04-18T21:16:04.167Z,6.38
2023-04-18T21:18:34.243Z,6.97
2023-04-18T21:21:04.784Z,6.65
2023-04-18T21:23:35.184Z,6.72
2023-04-18T21:26:06.444Z,6.35
2023-04-18T21:28:52.699Z,7.07
2023-04-18T21:31:21.495Z,5.72
2023-04-18T21:33:53.951Z,5.97
2023-04-18T21:36:22.550Z,5.72
2023-04-18T21:38:56.486Z,6.10
2023-04-18T21:41:28.125Z,6.30
2023-04-18T21:43:56.593Z,6.00
2023-04-18T21:46:28.090Z,5.72
2023-04-18T21:48:59.547Z,6.15
2023-04-18T21:51:28.715Z,6.60
2023-04-18T21:54:01.264Z,5.63
2023-04-18T21:56:30.762Z,6.60
2023-04-18T21:59:02.101Z,5.68
2023-04-18T22:01:32.585Z,5.35
2023-04-18T22:04:02.809Z,5.72
2023-04-18T22:06:41.680Z,6.00
2023-04-18T22:09:10.367Z,5.38
2023-04-18T22:11:39.146Z,5.20
2023-04-18T22:14:12.310Z,5.60
2023-04-18T22:16:46.054Z,5.07
2023-04-18T22:21:48.137Z,5.25
2023-04-18T22:24:16.947Z,4.93
2023-04-18T22:26:45.511Z,5.43
2023-04-18T22:29:25.918Z,5.35
2023-04-18T22:32:00.533Z,5.28
2023-04-18T22:34:31.524Z,5.30
2023-04-18T22:36:59.924Z,4.65
2023-04-18T22:39:28.225Z,5.22
2023-04-18T22:41:57.003Z,5.13
2023-04-18T22:44:25.332Z,5.63
2023-04-18T22:46:55.045Z,5.50
2023-04-18T22:49:24.051Z,4.95
2023-04-18T22:51:54.553Z,5.65
2023-04-18T22:54:23.211Z,5.57
2023-04-18T22:56:53.665Z,5.43
2023-04-18T22:59:21.965Z,4.90
2023-04-18T23:01:50.374Z,5.13
2023-04-18T23:04:19.112Z,5.18
2023-04-18T23:06:48.853Z,5.10
2023-04-18T23:09:20.744Z,6.03
2023-04-18T23:11:51.187Z,6.10
2023-04-18T23:14:21.621Z,5.90
2023-04-18T23:16:50.350Z,5.30
2023-04-18T23:19:19.068Z,5.82
2023-04-18T23:21:51.506Z,5.53
2023-04-18T23:24:22.069Z,4.95
2023-04-18T23:26:50.507Z,5.32
2023-04-18T23:29:18.826Z,4.90
2023-04-18T23:31:47.053Z,5.15
2023-04-18T23:34:15.648Z,4.95
2023-04-18T23:36:44.308Z,4.50
2023-04-18T23:39:12.539Z,4.40
2023-04-18T23:41:42.409Z,5.88
2023-04-18T23:44:10.689Z,6.03
2023-04-18T23:46:40.867Z,6.00
2023-04-18T23:49:09.653Z,5.55
2023-04-18T23:51:38.764Z,5.45
2023-04-18T23:54:08.891Z,6.13
2023-04-18T23:56:37.152Z,6.13
2023-04-18T23:59:09.827Z,5.32
